Terminal Aerodrome Forecast
Issued by NWS

Home | Current Version | Previous Version | Text Only | Print | Product List | Glossary On
Versions: 1 2 3 4 5 6 7 8 9 10 11 12
000
FTUS45 KABQ 220500
TAFLVS
TAF
KLVS 220524Z 2206/2306 29013KT P6SM SCT200
     FM221700 25015G25KT P6SM FEW040 SCT200
     FM222100 30022G32KT P6SM FEW040 SCT150
     FM230300 04007KT P6SM VCSH OVC015=

USA.gov is the U.S. government's official web portal to all federal, state and local government web resources and services.